Scottsville, Virginia
Current Conditions -  °F | °C
As of 11:53 AM on Sunday 23 Nov 2014 (Local Time) from KCHO Reporting Station
Few Clouds Few Clouds  
Wind Chill: 51°   Ceiling: Unl
Heat Index: 51°   Visibility: 10mi
Dew Point: 26°   Wind: 6mph
Humidity: 38%   Direction: 180°S
Pressure: 30.16"   Gusts: NA
Location:  37.8°N, 78.5°W
Report Text: KCHO 231653Z 18005KT 10SM FEW031 11/M03 A3016 RMK AO2 SLP213 T01061033
Loading
Personal Weather Stations






























Interactive Weather Map New forecast layout! Learn more

10-Day Weather Forecast

Advertisements
Track Severe Weather on mobile